Time,TemperatureF,DewpointF,PressureIn,WindDirection,WindDirectionDegrees,WindSpeedMPH,WindSpeedGustMPH,Humidity,HourlyPrecipIn,Conditions,Clouds,dailyrainin,SoftwareType,DateUTC
2013-09-30 00:01:00,52.0,46.5,29.94,SSW,202,3.6,3.8,81,0.00,,,0.00,WUHU21623XXSP,2013-09-30 05:01:00,
2013-09-30 00:06:00,52.0,46.5,29.94,SSE,157,0.0,4.3,81,0.00,,,0.00,WUHU21623XXSP,2013-09-30 05:06:00,
2013-09-30 00:11:00,52.0,46.8,29.93,ESE,112,0.0,4.3,82,0.00,,,0.00,WUHU21623XXSP,2013-09-30 05:11:00,
2013-09-30 00:16:00,52.2,46.7,29.94,SSE,157,4.7,5.6,81,0.00,,,0.00,WUHU21623XXSP,2013-09-30 05:16:00,
2013-09-30 00:21:00,52.5,47.0,29.93,SSE,157,3.1,5.6,81,0.00,,,0.00,WUHU21623XXSP,2013-09-30 05:21:00,
2013-09-30 00:26:00,52.3,46.8,29.93,South,180,0.0,4.9,81,0.00,,,0.00,WUHU21623XXSP,2013-09-30 05:26:00,
2013-09-30 00:31:00,52.0,46.5,29.94,SSE,157,1.3,3.8,81,0.00,,,0.00,WUHU21623XXSP,2013-09-30 05:31:00,
2013-09-30 00:36:00,51.8,46.3,29.93,East,90,0.0,3.8,81,0.00,,,0.00,WUHU21623XXSP,2013-09-30 05:36:00,
2013-09-30 00:41:00,51.4,46.2,29.94,South,180,2.0,3.8,82,0.00,,,0.00,WUHU21623XXSP,2013-09-30 05:41:00,
2013-09-30 00:46:00,51.1,46.3,29.93,SSE,157,0.0,3.1,83,0.00,,,0.00,WUHU21623XXSP,2013-09-30 05:46:00,
2013-09-30 00:51:00,50.7,45.9,29.93,South,180,0.0,2.9,83,0.00,,,0.00,WUHU21623XXSP,2013-09-30 05:51:00,
2013-09-30 00:56:00,50.4,45.9,29.93,SSE,157,0.0,2.0,85,0.00,,,0.00,WUHU21623XXSP,2013-09-30 05:56:00,
2013-09-30 01:01:00,50.0,45.5,29.93,NW,315,0.0,1.3,85,0.00,,,0.00,WUHU21623XXSP,2013-09-30 06:01:00,
2013-09-30 01:06:00,49.8,45.3,29.93,SSE,157,0.0,2.0,85,0.00,,,0.00,WUHU21623XXSP,2013-09-30 06:06:00,
2013-09-30 01:11:00,49.6,45.4,29.93,SSE,157,0.0,2.0,86,0.00,,,0.00,WUHU21623XXSP,2013-09-30 06:11:00,
2013-09-30 01:16:00,49.8,45.6,29.93,ESE,112,0.0,3.4,86,0.00,,,0.00,WUHU21623XXSP,2013-09-30 06:16:00,
2013-09-30 01:21:00,49.8,45.6,29.93,ESE,112,0.0,3.4,86,0.00,,,0.00,WUHU21623XXSP,2013-09-30 06:21:00,
2013-09-30 01:26:00,49.8,45.6,29.94,ENE,67,1.1,3.6,86,0.00,,,0.00,WUHU21623XXSP,2013-09-30 06:26:00,
2013-09-30 01:31:00,49.8,45.6,29.93,ENE,67,0.0,3.6,86,0.00,,,0.00,WUHU21623XXSP,2013-09-30 06:31:00,
2013-09-30 01:36:00,49.6,45.7,29.93,ESE,112,0.0,0.9,87,0.00,,,0.00,WUHU21623XXSP,2013-09-30 06:36:00,
2013-09-30 01:41:00,49.3,45.4,29.93,NE,45,0.0,0.0,87,0.00,,,0.00,WUHU21623XXSP,2013-09-30 06:41:00,
2013-09-30 01:46:00,49.1,45.2,29.93,ESE,112,0.0,0.0,87,0.00,,,0.00,WUHU21623XXSP,2013-09-30 06:46:00,
2013-09-30 01:51:00,48.7,44.8,29.93,SSW,202,0.0,0.0,87,0.00,,,0.00,WUHU21623XXSP,2013-09-30 06:51:00,
2013-09-30 01:56:00,48.7,44.8,29.93,ENE,67,0.0,1.3,87,0.00,,,0.00,WUHU21623XXSP,2013-09-30 06:56:00,
2013-09-30 02:01:00,48.7,45.1,29.93,SW,225,2.2,2.2,88,0.00,,,0.00,WUHU21623XXSP,2013-09-30 07:01:00,
2013-09-30 02:06:00,48.7,45.1,29.93,ENE,67,0.0,2.2,88,0.00,,,0.00,WUHU21623XXSP,2013-09-30 07:06:00,
2013-09-30 02:11:00,48.6,45.0,29.93,NNE,22,0.0,0.0,88,0.00,,,0.00,WUHU21623XXSP,2013-09-30 07:11:00,
2013-09-30 02:16:00,48.4,44.8,29.93,ENE,67,0.0,0.0,88,0.00,,,0.00,WUHU21623XXSP,2013-09-30 07:16:00,
2013-09-30 02:21:00,48.0,44.5,29.93,East,90,0.0,0.0,88,0.00,,,0.00,WUHU21623XXSP,2013-09-30 07:21:00,
2013-09-30 02:26:00,47.8,44.6,29.93,East,90,0.0,0.0,89,0.00,,,0.00,WUHU21623XXSP,2013-09-30 07:26:00,
2013-09-30 02:31:00,47.7,44.5,29.93,East,90,0.0,0.0,89,0.00,,,0.00,WUHU21623XXSP,2013-09-30 07:31:00,
2013-09-30 02:36:00,47.5,44.3,29.93,East,90,0.0,0.0,89,0.00,,,0.00,WUHU21623XXSP,2013-09-30 07:36:00,
2013-09-30 02:41:00,47.3,44.1,29.93,East,90,0.0,0.0,89,0.00,,,0.00,WUHU21623XXSP,2013-09-30 07:41:00,
2013-09-30 02:46:00,47.1,43.9,29.92,NE,45,0.0,0.0,89,0.00,,,0.00,WUHU21623XXSP,2013-09-30 07:46:00,
2013-09-30 02:51:00,46.9,44.0,29.92,NNE,22,0.0,0.0,90,0.00,,,0.00,WUHU21623XXSP,2013-09-30 07:51:00,
2013-09-30 02:56:00,46.9,44.0,29.93,NNE,22,0.0,0.0,90,0.00,,,0.00,WUHU21623XXSP,2013-09-30 07:56:00,
2013-09-30 03:01:00,46.8,43.9,29.92,ENE,67,0.0,0.0,90,0.00,,,0.00,WUHU21623XXSP,2013-09-30 08:01:00,
2013-09-30 03:06:00,46.8,43.9,29.92,NE,45,0.0,0.0,90,0.00,,,0.00,WUHU21623XXSP,2013-09-30 08:06:00,
2013-09-30 03:11:00,46.6,44.0,29.92,NNE,22,0.0,0.0,91,0.00,,,0.00,WUHU21623XXSP,2013-09-30 08:11:00,
2013-09-30 03:16:00,46.6,44.0,29.92,NNW,337,0.0,0.0,91,0.00,,,0.00,WUHU21623XXSP,2013-09-30 08:16:00,
2013-09-30 03:21:00,46.6,44.0,29.92,NNE,22,0.0,0.0,91,0.00,,,0.00,WUHU21623XXSP,2013-09-30 08:21:00,
2013-09-30 03:26:00,46.6,44.0,29.92,ENE,67,0.0,0.0,91,0.00,,,0.00,WUHU21623XXSP,2013-09-30 08:26:00,
2013-09-30 03:31:00,46.2,43.6,29.92,ESE,112,0.0,0.0,91,0.00,,,0.00,WUHU21623XXSP,2013-09-30 08:31:00,
2013-09-30 03:36:00,46.2,43.6,29.92,NNE,22,0.0,0.0,91,0.00,,,0.00,WUHU21623XXSP,2013-09-30 08:36:00,
2013-09-30 03:41:00,46.2,43.9,29.92,NNE,22,0.0,0.0,92,0.00,,,0.00,WUHU21623XXSP,2013-09-30 08:41:00,
2013-09-30 03:46:00,46.2,43.9,29.92,NNE,22,0.0,0.0,92,0.00,,,0.00,WUHU21623XXSP,2013-09-30 08:46:00,
2013-09-30 03:51:00,46.2,43.9,29.91,ENE,67,0.0,0.0,92,0.00,,,0.00,WUHU21623XXSP,2013-09-30 08:51:00,
2013-09-30 03:56:00,46.2,43.9,29.91,East,90,0.0,0.0,92,0.00,,,0.00,WUHU21623XXSP,2013-09-30 08:56:00,
2013-09-30 04:01:00,46.2,43.9,29.92,NE,45,0.0,0.0,92,0.00,,,0.00,WUHU21623XXSP,2013-09-30 09:01:00,
2013-09-30 04:06:00,46.2,43.9,29.92,South,180,0.0,2.7,92,0.00,,,0.00,WUHU21623XXSP,2013-09-30 09:06:00,
2013-09-30 04:11:00,46.4,44.1,29.92,NNE,22,0.0,2.7,92,0.00,,,0.00,WUHU21623XXSP,2013-09-30 09:11:00,
2013-09-30 04:16:00,46.4,44.1,29.92,SE,135,0.0,1.1,92,0.00,,,0.00,WUHU21623XXSP,2013-09-30 09:16:00,
2013-09-30 04:21:00,46.6,44.6,29.92,NE,45,0.0,2.2,93,0.00,,,0.00,WUHU21623XXSP,2013-09-30 09:21:00,
2013-09-30 04:26:00,46.6,44.3,29.93,NE,45,0.0,2.2,92,0.00,,,0.00,WUHU21623XXSP,2013-09-30 09:26:00,
2013-09-30 04:31:00,46.6,44.3,29.92,NNE,22,0.0,1.3,92,0.00,,,0.00,WUHU21623XXSP,2013-09-30 09:31:00,
2013-09-30 04:36:00,46.2,43.9,29.92,SSW,202,0.0,0.0,92,0.00,,,0.00,WUHU21623XXSP,2013-09-30 09:36:00,
2013-09-30 04:41:00,46.2,44.2,29.92,SE,135,0.0,0.0,93,0.00,,,0.00,WUHU21623XXSP,2013-09-30 09:41:00,
2013-09-30 04:46:00,46.2,44.2,29.92,South,180,1.1,2.7,93,0.00,,,0.00,WUHU21623XXSP,2013-09-30 09:46:00,
2013-09-30 04:51:00,46.2,44.2,29.92,SSE,157,0.9,2.7,93,0.00,,,0.00,WUHU21623XXSP,2013-09-30 09:51:00,
2013-09-30 04:56:00,46.6,44.3,29.92,ENE,67,0.0,1.3,92,0.00,,,0.00,WUHU21623XXSP,2013-09-30 09:56:00,
2013-09-30 05:01:00,46.6,44.6,29.92,NNE,22,0.0,1.1,93,0.00,,,0.00,WUHU21623XXSP,2013-09-30 10:01:00,
2013-09-30 05:06:00,46.6,44.6,29.92,NNE,22,0.0,1.1,93,0.00,,,0.00,WUHU21623XXSP,2013-09-30 10:06:00,
2013-09-30 05:11:00,46.2,44.2,29.92,NNE,22,0.0,0.0,93,0.00,,,0.00,WUHU21623XXSP,2013-09-30 10:11:00,
2013-09-30 05:16:00,46.2,44.2,29.93,NNE,22,0.0,0.0,93,0.00,,,0.00,WUHU21623XXSP,2013-09-30 10:16:00,
2013-09-30 05:21:00,46.0,44.0,29.93,NNE,22,0.0,0.0,93,0.00,,,0.00,WUHU21623XXSP,2013-09-30 10:21:00,
2013-09-30 05:26:00,46.0,44.0,29.92,East,90,0.0,0.0,93,0.00,,,0.00,WUHU21623XXSP,2013-09-30 10:26:00,
2013-09-30 05:31:00,46.0,44.0,29.92,East,90,0.0,1.1,93,0.00,,,0.00,WUHU21623XXSP,2013-09-30 10:31:00,
2013-09-30 05:36:00,46.0,44.0,29.92,East,90,0.0,1.6,93,0.00,,,0.00,WUHU21623XXSP,2013-09-30 10:36:00,
2013-09-30 05:41:00,46.2,44.2,29.92,ESE,112,0.0,1.6,93,0.00,,,0.00,WUHU21623XXSP,2013-09-30 10:41:00,
2013-09-30 05:46:00,46.2,44.2,29.92,East,90,0.0,0.0,93,0.00,,,0.00,WUHU21623XXSP,2013-09-30 10:46:00,
2013-09-30 05:51:00,46.0,44.0,29.92,North,0,0.0,0.0,93,0.00,,,0.00,WUHU21623XXSP,2013-09-30 10:51:00,
2013-09-30 05:56:00,46.0,44.0,29.92,North,0,0.0,0.0,93,0.00,,,0.00,WUHU21623XXSP,2013-09-30 10:56:00,
2013-09-30 06:01:00,46.0,44.0,29.92,NE,45,0.0,0.0,93,0.00,,,0.00,WUHU21623XXSP,2013-09-30 11:01:00,
2013-09-30 06:06:00,45.9,43.9,29.92,NE,45,0.0,0.0,93,0.00,,,0.00,WUHU21623XXSP,2013-09-30 11:06:00,
2013-09-30 06:11:00,45.7,43.7,29.92,NNW,337,0.0,0.0,93,0.00,,,0.00,WUHU21623XXSP,2013-09-30 11:11:00,
2013-09-30 06:16:00,45.7,43.7,29.92,NE,45,0.0,0.0,93,0.00,,,0.00,WUHU21623XXSP,2013-09-30 11:16:00,
2013-09-30 06:21:00,45.5,43.5,29.92,North,0,0.0,0.0,93,0.00,,,0.00,WUHU21623XXSP,2013-09-30 11:21:00,
2013-09-30 06:26:00,45.5,43.5,29.92,South,180,0.0,0.0,93,0.00,,,0.00,WUHU21623XXSP,2013-09-30 11:26:00,
2013-09-30 06:31:00,45.5,43.5,29.92,North,0,0.0,0.0,93,0.00,,,0.00,WUHU21623XXSP,2013-09-30 11:31:00,
2013-09-30 06:36:00,45.7,43.7,29.91,North,0,0.0,2.9,93,0.00,,,0.00,WUHU21623XXSP,2013-09-30 11:36:00,
2013-09-30 06:41:00,46.0,44.3,29.91,East,90,0.0,2.9,94,0.00,,,0.00,WUHU21623XXSP,2013-09-30 11:41:00,
2013-09-30 06:46:00,46.2,44.2,29.91,ENE,67,0.0,2.0,93,0.00,,,0.00,WUHU21623XXSP,2013-09-30 11:46:00,
2013-09-30 06:51:00,46.2,44.2,29.91,ESE,112,0.0,1.3,93,0.00,,,0.00,WUHU21623XXSP,2013-09-30 11:51:00,
2013-09-30 06:56:00,46.0,44.0,29.91,ENE,67,0.0,1.1,93,0.00,,,0.00,WUHU21623XXSP,2013-09-30 11:56:00,
2013-09-30 07:01:00,46.0,44.3,29.91,NE,45,0.0,0.0,94,0.00,,,0.00,WUHU21623XXSP,2013-09-30 12:01:00,
2013-09-30 07:06:00,46.0,44.3,29.91,NNE,22,0.0,0.0,94,0.00,,,0.00,WUHU21623XXSP,2013-09-30 12:06:00,
2013-09-30 07:11:00,46.0,44.3,29.91,NE,45,0.0,0.0,94,0.00,,,0.00,WUHU21623XXSP,2013-09-30 12:11:00,
2013-09-30 07:16:00,46.2,44.4,29.90,East,90,0.0,1.3,94,0.00,,,0.00,WUHU21623XXSP,2013-09-30 12:16:00,
2013-09-30 07:21:00,46.2,44.4,29.90,ESE,112,0.0,2.5,94,0.00,,,0.00,WUHU21623XXSP,2013-09-30 12:21:00,
2013-09-30 07:26:00,46.6,44.8,29.90,SE,135,0.0,2.5,94,0.00,,,0.00,WUHU21623XXSP,2013-09-30 12:26:00,
2013-09-30 07:31:00,47.3,45.2,29.90,SSE,157,2.7,3.8,93,0.00,,,0.00,WUHU21623XXSP,2013-09-30 12:31:00,
2013-09-30 07:36:00,48.7,46.3,29.90,ESE,112,0.0,5.6,92,0.00,,,0.00,WUHU21623XXSP,2013-09-30 12:36:00,
2013-09-30 07:41:00,50.2,47.5,29.90,SSE,157,1.8,6.0,91,0.00,,,0.00,WUHU21623XXSP,2013-09-30 12:41:00,
2013-09-30 07:46:00,51.4,47.8,29.90,SSE,157,3.1,11.9,88,0.00,,,0.00,WUHU21623XXSP,2013-09-30 12:46:00,
2013-09-30 07:51:00,52.3,47.4,29.91,SSW,202,4.9,11.9,83,0.00,,,0.00,WUHU21623XXSP,2013-09-30 12:51:00,
2013-09-30 07:56:00,53.2,47.3,29.90,SSW,202,6.3,8.1,80,0.00,,,0.00,WUHU21623XXSP,2013-09-30 12:56:00,
2013-09-30 08:01:00,53.8,46.9,29.90,South,180,8.9,9.2,77,0.00,,,0.00,WUHU21623XXSP,2013-09-30 13:01:00,
2013-09-30 08:06:00,53.8,46.6,29.90,South,180,3.6,9.2,76,0.00,,,0.00,WUHU21623XXSP,2013-09-30 13:06:00,
2013-09-30 08:11:00,54.5,46.9,29.90,SSE,157,4.0,10.1,75,0.00,,,0.00,WUHU21623XXSP,2013-09-30 13:11:00,
2013-09-30 08:16:00,54.7,46.0,29.89,SSE,157,5.6,11.6,72,0.00,,,0.00,WUHU21623XXSP,2013-09-30 13:16:00,
2013-09-30 08:21:00,55.2,46.1,29.90,SE,135,7.6,12.5,71,0.00,,,0.00,WUHU21623XXSP,2013-09-30 13:21:00,
2013-09-30 08:26:00,55.4,45.5,29.90,SW,225,10.3,12.5,69,0.00,,,0.00,WUHU21623XXSP,2013-09-30 13:26:00,
2013-09-30 08:31:00,55.6,45.3,29.90,South,180,5.8,10.5,68,0.00,,,0.00,WUHU21623XXSP,2013-09-30 13:31:00,
2013-09-30 08:36:00,55.9,45.6,29.90,South,180,3.6,11.2,68,0.00,,,0.00,WUHU21623XXSP,2013-09-30 13:36:00,
2013-09-30 08:41:00,56.3,46.0,29.90,SSE,157,4.7,11.2,68,0.00,,,0.00,WUHU21623XXSP,2013-09-30 13:41:00,
2013-09-30 08:46:00,56.8,45.2,29.91,South,180,5.1,13.0,65,0.00,,,0.00,WUHU21623XXSP,2013-09-30 13:46:00,
2013-09-30 08:51:00,56.8,45.2,29.90,SSW,202,8.9,13.0,65,0.00,,,0.00,WUHU21623XXSP,2013-09-30 13:51:00,
2013-09-30 08:56:00,57.0,45.4,29.90,South,180,7.6,13.0,65,0.00,,,0.00,WUHU21623XXSP,2013-09-30 13:56:00,
2013-09-30 09:01:00,57.4,45.8,29.90,South,180,4.3,12.8,65,0.00,,,0.00,WUHU21623XXSP,2013-09-30 14:01:00,
2013-09-30 09:06:00,57.7,46.1,29.90,South,180,4.7,10.1,65,0.00,,,0.00,WUHU21623XXSP,2013-09-30 14:06:00,
2013-09-30 09:11:00,58.6,47.4,29.89,South,180,4.5,10.1,66,0.00,,,0.00,WUHU21623XXSP,2013-09-30 14:11:00,
2013-09-30 09:16:00,58.8,46.3,29.90,SSW,202,7.2,10.5,63,0.00,,,0.00,WUHU21623XXSP,2013-09-30 14:16:00,
2013-09-30 09:21:00,59.2,45.3,29.90,SW,225,6.7,11.9,60,0.00,,,0.00,WUHU21623XXSP,2013-09-30 14:21:00,
2013-09-30 09:26:00,60.1,47.1,29.89,South,180,3.4,11.9,62,0.00,,,0.00,WUHU21623XXSP,2013-09-30 14:26:00,
2013-09-30 09:31:00,59.7,46.3,29.89,SSW,202,12.5,12.5,61,0.00,,,0.00,WUHU21623XXSP,2013-09-30 14:31:00,
2013-09-30 09:36:00,60.1,46.6,29.89,SW,225,7.2,12.5,61,0.00,,,0.00,WUHU21623XXSP,2013-09-30 14:36:00,
2013-09-30 09:41:00,60.6,47.1,29.89,SW,225,6.9,11.4,61,0.00,,,0.00,WUHU21623XXSP,2013-09-30 14:41:00,
2013-09-30 09:46:00,61.0,47.5,29.88,SSW,202,8.7,11.2,61,0.00,,,0.00,WUHU21623XXSP,2013-09-30 14:46:00,
2013-09-30 09:51:00,61.0,47.0,29.89,South,180,6.5,11.2,60,0.00,,,0.00,WUHU21623XXSP,2013-09-30 14:51:00,
2013-09-30 09:56:00,61.9,47.9,29.89,South,180,6.0,10.7,60,0.00,,,0.00,WUHU21623XXSP,2013-09-30 14:56:00,
2013-09-30 10:01:00,62.2,47.2,29.89,SSW,202,8.9,10.7,58,0.00,,,0.00,WUHU21623XXSP,2013-09-30 15:01:00,
2013-09-30 10:06:00,62.8,47.8,29.90,SSW,202,5.8,11.4,58,0.00,,,0.00,WUHU21623XXSP,2013-09-30 15:06:00,
2013-09-30 10:11:00,63.1,47.6,29.89,SSW,202,8.1,11.4,57,0.00,,,0.00,WUHU21623XXSP,2013-09-30 15:11:00,
2013-09-30 10:16:00,63.1,47.1,29.88,South,180,10.3,10.7,56,0.00,,,0.00,WUHU21623XXSP,2013-09-30 15:16:00,
2013-09-30 10:21:00,63.3,47.3,29.88,South,180,11.6,11.9,56,0.00,,,0.00,WUHU21623XXSP,2013-09-30 15:21:00,
2013-09-30 10:26:00,63.1,47.1,29.87,West,270,6.0,13.9,56,0.00,,,0.00,WUHU21623XXSP,2013-09-30 15:26:00,
2013-09-30 10:31:00,64.0,47.4,29.87,South,180,3.1,13.9,55,0.00,,,0.00,WUHU21623XXSP,2013-09-30 15:31:00,
2013-09-30 10:36:00,64.2,47.1,29.87,South,180,6.3,13.0,54,0.00,,,0.00,WUHU21623XXSP,2013-09-30 15:36:00,
2013-09-30 10:41:00,64.2,47.1,29.87,WSW,247,13.0,13.0,54,0.00,,,0.00,WUHU21623XXSP,2013-09-30 15:41:00,
2013-09-30 10:46:00,64.6,46.9,29.87,South,180,7.2,13.0,53,0.00,,,0.00,WUHU21623XXSP,2013-09-30 15:46:00,
2013-09-30 10:51:00,64.9,47.2,29.88,SW,225,8.3,13.0,53,0.00,,,0.00,WUHU21623XXSP,2013-09-30 15:51:00,
2013-09-30 10:56:00,65.3,47.6,29.88,SW,225,7.6,13.0,53,0.00,,,0.00,WUHU21623XXSP,2013-09-30 15:56:00,
2013-09-30 11:01:00,65.7,47.9,29.88,SSW,202,8.3,13.4,53,0.00,,,0.00,WUHU21623XXSP,2013-09-30 16:01:00,
2013-09-30 11:06:00,65.8,47.5,29.88,SSE,157,6.0,14.3,52,0.00,,,0.00,WUHU21623XXSP,2013-09-30 16:06:00,
2013-09-30 11:12:00,66.4,47.5,29.88,South,180,7.2,14.3,51,0.00,,,0.00,WUHU21623XXSP,2013-09-30 16:12:00,
2013-09-30 11:17:00,66.6,47.7,29.88,South,180,8.3,16.1,51,0.00,,,0.00,WUHU21623XXSP,2013-09-30 16:17:00,
2013-09-30 11:22:00,66.6,47.7,29.88,SSE,157,6.0,16.1,51,0.00,,,0.00,WUHU21623XXSP,2013-09-30 16:22:00,
2013-09-30 11:27:00,67.1,49.2,29.88,WSW,247,10.5,11.9,53,0.00,,,0.00,WUHU21623XXSP,2013-09-30 16:27:00,
2013-09-30 11:32:00,66.9,47.4,29.88,SW,225,8.1,14.5,49,0.00,,,0.00,WUHU21623XXSP,2013-09-30 16:32:00,
2013-09-30 11:37:00,67.6,48.6,29.88,SE,135,6.3,14.5,51,0.00,,,0.00,WUHU21623XXSP,2013-09-30 16:37:00,
2013-09-30 11:42:00,67.5,47.4,29.87,SW,225,4.3,13.2,48,0.00,,,0.00,WUHU21623XXSP,2013-09-30 16:42:00,
2013-09-30 11:47:00,67.6,48.0,29.87,SSE,157,3.8,13.2,49,0.00,,,0.00,WUHU21623XXSP,2013-09-30 16:47:00,
2013-09-30 11:52:00,67.8,48.8,29.87,SSW,202,6.0,11.9,51,0.00,,,0.00,WUHU21623XXSP,2013-09-30 16:52:00,
2013-09-30 11:57:00,68.5,48.3,29.87,South,180,8.5,11.2,48,0.00,,,0.00,WUHU21623XXSP,2013-09-30 16:57:00,
2013-09-30 12:02:00,68.2,48.0,29.87,SSW,202,9.4,14.5,48,0.00,,,0.00,WUHU21623XXSP,2013-09-30 17:02:00,
2013-09-30 12:07:00,68.2,48.6,29.87,SW,225,7.8,18.3,49,0.00,,,0.00,WUHU21623XXSP,2013-09-30 17:07:00,
2013-09-30 12:12:00,68.5,48.3,29.87,South,180,5.8,18.3,48,0.00,,,0.00,WUHU21623XXSP,2013-09-30 17:12:00,
2013-09-30 12:17:00,69.1,48.8,29.87,SSW,202,6.7,9.6,48,0.00,,,0.00,WUHU21623XXSP,2013-09-30 17:17:00,
2013-09-30 12:22:00,69.3,48.4,29.87,SSW,202,7.6,13.0,47,0.00,,,0.00,WUHU21623XXSP,2013-09-30 17:22:00,
2013-09-30 12:27:00,69.4,48.5,29.87,SSW,202,10.7,13.0,47,0.00,,,0.00,WUHU21623XXSP,2013-09-30 17:27:00,
2013-09-30 12:32:00,69.4,47.9,29.87,SSW,202,10.3,12.8,46,0.00,,,0.00,WUHU21623XXSP,2013-09-30 17:32:00,
2013-09-30 12:37:00,69.1,47.6,29.86,South,180,8.3,16.6,46,0.00,,,0.00,WUHU21623XXSP,2013-09-30 17:37:00,
2013-09-30 12:42:00,69.6,48.7,29.86,SSW,202,6.3,16.6,47,0.00,,,0.00,WUHU21623XXSP,2013-09-30 17:42:00,
2013-09-30 12:47:00,69.6,48.1,29.86,South,180,7.8,13.0,46,0.00,,,0.00,WUHU21623XXSP,2013-09-30 17:47:00,
2013-09-30 12:52:00,70.0,48.5,29.85,SW,225,7.6,13.0,46,0.00,,,0.00,WUHU21623XXSP,2013-09-30 17:52:00,
2013-09-30 12:57:00,70.0,48.5,29.85,SSE,157,11.6,13.2,46,0.00,,,0.00,WUHU21623XXSP,2013-09-30 17:57:00,
2013-09-30 13:02:00,70.0,48.5,29.85,SSW,202,13.0,13.2,46,0.00,,,0.00,WUHU21623XXSP,2013-09-30 18:02:00,
2013-09-30 13:07:00,70.2,49.3,29.85,SSW,202,6.0,13.0,47,0.00,,,0.00,WUHU21623XXSP,2013-09-30 18:07:00,
2013-09-30 13:12:00,70.5,48.9,29.84,SSW,202,6.7,16.1,46,0.00,,,0.00,WUHU21623XXSP,2013-09-30 18:12:00,
2013-09-30 13:17:00,70.9,48.7,29.84,SSW,202,13.9,16.3,45,0.00,,,0.00,WUHU21623XXSP,2013-09-30 18:17:00,
2013-09-30 13:22:00,70.5,48.9,29.84,SSW,202,7.4,16.3,46,0.00,,,0.00,WUHU21623XXSP,2013-09-30 18:22:00,
2013-09-30 13:27:00,70.0,47.8,29.83,SSW,202,10.1,13.9,45,0.00,,,0.00,WUHU21623XXSP,2013-09-30 18:27:00,
2013-09-30 13:32:00,70.2,47.4,29.83,SSE,157,5.8,15.7,44,0.00,,,0.00,WUHU21623XXSP,2013-09-30 18:32:00,
2013-09-30 13:37:00,69.6,47.5,29.83,SSW,202,6.9,17.4,45,0.00,,,0.00,WUHU21623XXSP,2013-09-30 18:37:00,
2013-09-30 13:42:00,70.0,47.8,29.83,South,180,4.0,17.4,45,0.00,,,0.00,WUHU21623XXSP,2013-09-30 18:42:00,
2013-09-30 13:47:00,70.3,48.7,29.83,SW,225,4.7,15.0,46,0.00,,,0.00,WUHU21623XXSP,2013-09-30 18:47:00,
2013-09-30 13:52:00,70.2,48.0,29.83,SW,225,3.6,14.1,45,0.00,,,0.00,WUHU21623XXSP,2013-09-30 18:52:00,
2013-09-30 13:57:00,70.5,48.9,29.83,WSW,247,8.3,14.1,46,0.00,,,0.00,WUHU21623XXSP,2013-09-30 18:57:00,
2013-09-30 14:02:00,71.2,48.9,29.83,SSW,202,6.0,13.9,45,0.00,,,0.00,WUHU21623XXSP,2013-09-30 19:02:00,
2013-09-30 14:07:00,70.9,49.3,29.82,SSW,202,10.5,13.9,46,0.00,,,0.00,WUHU21623XXSP,2013-09-30 19:07:00,
2013-09-30 14:12:00,70.9,49.3,29.82,SW,225,7.6,12.3,46,0.00,,,0.00,WUHU21623XXSP,2013-09-30 19:12:00,
2013-09-30 14:17:00,71.4,50.4,29.82,South,180,4.0,12.3,47,0.00,,,0.00,WUHU21623XXSP,2013-09-30 19:17:00,
2013-09-30 14:22:00,71.8,50.1,29.82,SW,225,10.3,11.9,46,0.00,,,0.00,WUHU21623XXSP,2013-09-30 19:22:00,
2013-09-30 14:27:00,71.8,49.5,29.81,SSW,202,8.3,15.7,45,0.00,,,0.00,WUHU21623XXSP,2013-09-30 19:27:00,
2013-09-30 14:32:00,71.4,49.1,29.82,SSW,202,7.6,16.8,45,0.00,,,0.00,WUHU21623XXSP,2013-09-30 19:32:00,
2013-09-30 14:37:00,71.4,50.4,29.81,South,180,5.4,16.8,47,0.00,,,0.00,WUHU21623XXSP,2013-09-30 19:37:00,
2013-09-30 14:42:00,71.2,48.9,29.81,SW,225,11.9,13.2,45,0.00,,,0.00,WUHU21623XXSP,2013-09-30 19:42:00,
2013-09-30 14:47:00,71.4,49.7,29.81,SW,225,5.8,13.2,46,0.00,,,0.00,WUHU21623XXSP,2013-09-30 19:47:00,
2013-09-30 14:52:00,71.6,49.9,29.81,SW,225,5.8,13.6,46,0.00,,,0.00,WUHU21623XXSP,2013-09-30 19:52:00,
2013-09-30 14:57:00,71.8,50.7,29.81,SW,225,15.2,15.2,47,0.00,,,0.00,WUHU21623XXSP,2013-09-30 19:57:00,
2013-09-30 15:02:00,72.0,50.9,29.81,SSW,202,6.7,15.2,47,0.00,,,0.00,WUHU21623XXSP,2013-09-30 20:02:00,
2013-09-30 15:07:00,71.8,49.5,29.80,SW,225,11.6,20.4,45,0.00,,,0.00,WUHU21623XXSP,2013-09-30 20:07:00,
2013-09-30 15:12:00,72.0,50.9,29.80,South,180,2.9,20.4,47,0.00,,,0.00,WUHU21623XXSP,2013-09-30 20:12:00,
2013-09-30 15:17:00,72.0,50.9,29.80,WSW,247,3.4,10.5,47,0.00,,,0.00,WUHU21623XXSP,2013-09-30 20:17:00,
2013-09-30 15:22:00,71.8,50.7,29.80,South,180,7.6,11.6,47,0.00,,,0.00,WUHU21623XXSP,2013-09-30 20:22:00,
2013-09-30 15:27:00,71.8,51.3,29.80,SSW,202,6.5,11.6,48,0.00,,,0.00,WUHU21623XXSP,2013-09-30 20:27:00,
2013-09-30 15:32:00,72.0,51.5,29.80,SSW,202,3.8,10.5,48,0.00,,,0.00,WUHU21623XXSP,2013-09-30 20:32:00,
2013-09-30 15:37:00,71.8,50.1,29.80,SSW,202,13.6,13.6,46,0.00,,,0.00,WUHU21623XXSP,2013-09-30 20:37:00,
2013-09-30 15:42:00,71.4,50.4,29.80,SSE,157,4.5,13.6,47,0.00,,,0.00,WUHU21623XXSP,2013-09-30 20:42:00,
2013-09-30 15:47:00,71.8,51.3,29.80,WSW,247,7.8,12.3,48,0.00,,,0.00,WUHU21623XXSP,2013-09-30 20:47:00,
2013-09-30 15:52:00,72.0,50.9,29.79,South,180,7.8,12.3,47,0.00,,,0.00,WUHU21623XXSP,2013-09-30 20:52:00,
2013-09-30 15:57:00,72.0,50.9,29.79,SSW,202,4.7,12.3,47,0.00,,,0.00,WUHU21623XXSP,2013-09-30 20:57:00,
2013-09-30 16:02:00,72.0,50.9,29.79,South,180,5.4,13.2,47,0.00,,,0.00,WUHU21623XXSP,2013-09-30 21:02:00,
2013-09-30 16:07:00,72.0,50.9,29.78,SSE,157,5.1,13.2,47,0.00,,,0.00,WUHU21623XXSP,2013-09-30 21:07:00,
2013-09-30 16:12:00,71.8,50.7,29.79,SSW,202,6.3,11.2,47,0.00,,,0.00,WUHU21623XXSP,2013-09-30 21:12:00,
2013-09-30 16:17:00,71.8,51.3,29.79,SW,225,4.3,11.2,48,0.00,,,0.00,WUHU21623XXSP,2013-09-30 21:17:00,
2013-09-30 16:22:00,71.4,50.4,29.78,SSE,157,6.3,13.6,47,0.00,,,0.00,WUHU21623XXSP,2013-09-30 21:22:00,
2013-09-30 16:27:00,71.2,50.2,29.78,South,180,9.2,13.6,47,0.00,,,0.00,WUHU21623XXSP,2013-09-30 21:27:00,
2013-09-30 16:32:00,71.8,50.7,29.78,WSW,247,5.1,12.1,47,0.00,,,0.00,WUHU21623XXSP,2013-09-30 21:32:00,
2013-09-30 16:37:00,72.0,50.9,29.78,SSW,202,9.8,13.4,47,0.00,,,0.00,WUHU21623XXSP,2013-09-30 21:37:00,
2013-09-30 16:42:00,71.8,50.1,29.78,South,180,6.9,13.4,46,0.00,,,0.00,WUHU21623XXSP,2013-09-30 21:42:00,
2013-09-30 16:47:00,71.8,51.3,29.78,South,180,5.4,12.3,48,0.00,,,0.00,WUHU21623XXSP,2013-09-30 21:47:00,
2013-09-30 16:52:00,72.0,50.9,29.77,South,180,6.0,12.3,47,0.00,,,0.00,WUHU21623XXSP,2013-09-30 21:52:00,
2013-09-30 16:57:00,71.4,50.4,29.77,SSE,157,11.9,11.9,47,0.00,,,0.00,WUHU21623XXSP,2013-09-30 21:57:00,
2013-09-30 17:02:00,71.2,50.2,29.77,SSW,202,6.3,11.9,47,0.00,,,0.00,WUHU21623XXSP,2013-09-30 22:02:00,
2013-09-30 17:07:00,71.2,50.2,29.77,South,180,3.1,11.9,47,0.00,,,0.00,WUHU21623XXSP,2013-09-30 22:07:00,
2013-09-30 17:12:00,70.9,50.5,29.77,WSW,247,6.3,9.6,48,0.00,,,0.00,WUHU21623XXSP,2013-09-30 22:12:00,
2013-09-30 17:17:00,70.7,50.9,29.77,SSE,157,8.3,8.7,49,0.00,,,0.00,WUHU21623XXSP,2013-09-30 22:17:00,
2013-09-30 17:22:00,70.5,50.1,29.76,South,180,10.1,10.7,48,0.00,,,0.00,WUHU21623XXSP,2013-09-30 22:22:00,
2013-09-30 17:27:00,70.3,50.5,29.76,SSW,202,4.0,10.7,49,0.00,,,0.00,WUHU21623XXSP,2013-09-30 22:27:00,
2013-09-30 17:32:00,70.2,50.4,29.76,SW,225,5.1,10.7,49,0.00,,,0.00,WUHU21623XXSP,2013-09-30 22:32:00,
2013-09-30 17:37:00,70.0,50.2,29.77,SSW,202,4.5,10.7,49,0.00,,,0.00,WUHU21623XXSP,2013-09-30 22:37:00,
2013-09-30 17:42:00,69.6,49.9,29.77,South,180,3.4,9.2,49,0.00,,,0.00,WUHU21623XXSP,2013-09-30 22:42:00,
2013-09-30 17:47:00,69.4,50.3,29.77,SSW,202,3.1,6.7,51,0.00,,,0.00,WUHU21623XXSP,2013-09-30 22:47:00,
2013-09-30 17:52:00,69.1,50.5,29.77,SSE,157,2.7,6.7,52,0.00,,,0.00,WUHU21623XXSP,2013-09-30 22:52:00,
2013-09-30 17:57:00,68.5,50.5,29.77,SSE,157,3.8,6.0,53,0.00,,,0.00,WUHU21623XXSP,2013-09-30 22:57:00,
2013-09-30 18:02:00,68.4,50.4,29.77,South,180,2.0,5.8,53,0.00,,,0.00,WUHU21623XXSP,2013-09-30 23:02:00,
2013-09-30 18:07:00,67.8,51.0,29.78,South,180,2.2,4.3,55,0.00,,,0.00,WUHU21623XXSP,2013-09-30 23:07:00,
2013-09-30 18:12:00,66.9,50.6,29.78,SSE,157,2.9,4.5,56,0.00,,,0.00,WUHU21623XXSP,2013-09-30 23:12:00,
2013-09-30 18:17:00,66.4,50.7,29.78,South,180,1.3,4.5,57,0.00,,,0.00,WUHU21623XXSP,2013-09-30 23:17:00,
2013-09-30 18:22:00,65.7,51.0,29.78,South,180,0.0,3.1,59,0.00,,,0.00,WUHU21623XXSP,2013-09-30 23:22:00,
2013-09-30 18:27:00,64.6,50.9,29.78,South,180,1.3,1.3,61,0.00,,,0.00,WUHU21623XXSP,2013-09-30 23:27:00,
2013-09-30 18:32:00,64.0,50.8,29.78,SSE,157,0.0,2.2,62,0.00,,,0.00,WUHU21623XXSP,2013-09-30 23:32:00,
2013-09-30 18:37:00,63.1,50.4,29.78,SE,135,0.0,2.2,63,0.00,,,0.00,WUHU21623XXSP,2013-09-30 23:37:00,
2013-09-30 18:42:00,63.0,50.7,29.78,ESE,112,0.0,1.6,64,0.00,,,0.00,WUHU21623XXSP,2013-09-30 23:42:00,
2013-09-30 18:47:00,62.2,50.4,29.78,SSE,157,1.1,1.3,65,0.00,,,0.00,WUHU21623XXSP,2013-09-30 23:47:00,
2013-09-30 18:52:00,61.9,50.1,29.77,ESE,112,0.0,1.1,65,0.00,,,0.00,WUHU21623XXSP,2013-09-30 23:52:00,
2013-09-30 18:57:00,61.5,50.2,29.77,SE,135,2.0,2.0,66,0.00,,,0.00,WUHU21623XXSP,2013-09-30 23:57:00,
2013-09-30 19:02:00,61.3,50.4,29.77,SE,135,1.6,3.1,67,0.00,,,0.00,WUHU21623XXSP,2013-10-01 00:02:00,
2013-09-30 19:07:00,61.5,50.6,29.77,SSE,157,2.9,4.3,67,0.00,,,0.00,WUHU21623XXSP,2013-10-01 00:07:00,
2013-09-30 19:12:00,61.3,50.4,29.77,SSE,157,3.4,4.3,67,0.00,,,0.00,WUHU21623XXSP,2013-10-01 00:12:00,
2013-09-30 19:17:00,61.5,50.6,29.77,South,180,0.0,4.0,67,0.00,,,0.00,WUHU21623XXSP,2013-10-01 00:17:00,
2013-09-30 19:22:00,61.2,50.3,29.77,ESE,112,0.0,4.0,67,0.00,,,0.00,WUHU21623XXSP,2013-10-01 00:22:00,
2013-09-30 19:27:00,60.6,50.1,29.77,SE,135,0.0,3.4,68,0.00,,,0.00,WUHU21623XXSP,2013-10-01 00:27:00,
2013-09-30 19:32:00,60.1,49.6,29.77,South,180,0.0,3.1,68,0.00,,,0.00,WUHU21623XXSP,2013-10-01 00:32:00,
2013-09-30 19:37:00,59.7,49.7,29.76,SSW,202,2.9,3.1,69,0.00,,,0.00,WUHU21623XXSP,2013-10-01 00:37:00,
2013-09-30 19:42:00,60.1,49.6,29.77,SSW,202,1.1,3.8,68,0.00,,,0.00,WUHU21623XXSP,2013-10-01 00:42:00,
2013-09-30 19:47:00,60.6,49.7,29.77,SSW,202,1.1,6.0,67,0.00,,,0.00,WUHU21623XXSP,2013-10-01 00:47:00,
2013-09-30 19:52:00,61.0,50.1,29.77,SSW,202,3.6,6.0,67,0.00,,,0.00,WUHU21623XXSP,2013-10-01 00:52:00,
2013-09-30 19:57:00,61.3,50.0,29.76,SSW,202,3.8,5.4,66,0.00,,,0.00,WUHU21623XXSP,2013-10-01 00:57:00,
2013-09-30 20:02:00,61.7,49.5,29.76,SSW,202,2.5,6.7,64,0.00,,,0.00,WUHU21623XXSP,2013-10-01 01:02:00,
2013-09-30 20:07:00,62.2,49.5,29.77,SSW,202,8.1,8.1,63,0.00,,,0.00,WUHU21623XXSP,2013-10-01 01:07:00,
2013-09-30 20:12:00,62.2,49.5,29.76,South,180,5.1,8.3,63,0.00,,,0.00,WUHU21623XXSP,2013-10-01 01:12:00,
2013-09-30 20:17:00,62.2,49.1,29.76,South,180,5.1,8.3,62,0.00,,,0.00,WUHU21623XXSP,2013-10-01 01:17:00,
2013-09-30 20:22:00,62.2,49.1,29.77,SSW,202,2.2,6.9,62,0.00,,,0.00,WUHU21623XXSP,2013-10-01 01:22:00,
2013-09-30 20:27:00,61.9,49.2,29.77,SW,225,5.4,6.9,63,0.00,,,0.00,WUHU21623XXSP,2013-10-01 01:27:00,
2013-09-30 20:32:00,61.9,49.2,29.77,SSE,157,4.5,6.0,63,0.00,,,0.00,WUHU21623XXSP,2013-10-01 01:32:00,
2013-09-30 20:37:00,62.1,49.0,29.77,SSW,202,5.1,10.5,62,0.00,,,0.00,WUHU21623XXSP,2013-10-01 01:37:00,
2013-09-30 20:42:00,62.2,49.1,29.77,South,180,7.6,10.5,62,0.00,,,0.00,WUHU21623XXSP,2013-10-01 01:42:00,
2013-09-30 20:47:00,62.6,49.0,29.77,SSW,202,7.4,10.5,61,0.00,,,0.00,WUHU21623XXSP,2013-10-01 01:47:00,
2013-09-30 20:52:00,62.8,48.7,29.77,South,180,6.9,12.5,60,0.00,,,0.00,WUHU21623XXSP,2013-10-01 01:52:00,
2013-09-30 20:57:00,63.0,48.9,29.76,South,180,6.3,12.5,60,0.00,,,0.00,WUHU21623XXSP,2013-10-01 01:57:00,
2013-09-30 21:02:00,63.0,48.9,29.76,SSE,157,4.9,11.0,60,0.00,,,0.00,WUHU21623XXSP,2013-10-01 02:02:00,
2013-09-30 21:07:00,63.0,48.9,29.76,South,180,4.3,11.0,60,0.00,,,0.00,WUHU21623XXSP,2013-10-01 02:07:00,
2013-09-30 21:12:00,62.8,48.7,29.76,SSW,202,4.7,10.1,60,0.00,,,0.00,WUHU21623XXSP,2013-10-01 02:12:00,
2013-09-30 21:17:00,62.8,48.7,29.76,SSW,202,7.2,10.7,60,0.00,,,0.00,WUHU21623XXSP,2013-10-01 02:17:00,
2013-09-30 21:22:00,62.6,48.5,29.76,South,180,3.6,12.8,60,0.00,,,0.00,WUHU21623XXSP,2013-10-01 02:22:00,
2013-09-30 21:27:00,62.6,48.5,29.76,South,180,7.8,12.8,60,0.00,,,0.00,WUHU21623XXSP,2013-10-01 02:27:00,
2013-09-30 21:32:00,62.4,48.4,29.76,SSE,157,3.6,9.4,60,0.00,,,0.00,WUHU21623XXSP,2013-10-01 02:32:00,
2013-09-30 21:37:00,62.4,48.8,29.76,WSW,247,5.1,9.8,61,0.00,,,0.00,WUHU21623XXSP,2013-10-01 02:37:00,
2013-09-30 21:42:00,62.2,48.6,29.76,South,180,6.5,9.8,61,0.00,,,0.00,WUHU21623XXSP,2013-10-01 02:42:00,
2013-09-30 21:47:00,61.9,48.8,29.77,South,180,6.5,11.4,62,0.00,,,0.00,WUHU21623XXSP,2013-10-01 02:47:00,
2013-09-30 21:52:00,61.7,49.1,29.77,North,0,2.9,11.4,63,0.00,,,0.00,WUHU21623XXSP,2013-10-01 02:52:00,
2013-09-30 21:57:00,61.5,48.9,29.76,SSW,202,8.5,11.6,63,0.00,,,0.00,WUHU21623XXSP,2013-10-01 02:57:00,
2013-09-30 22:02:00,61.5,48.9,29.77,South,180,3.8,11.6,63,0.00,,,0.00,WUHU21623XXSP,2013-10-01 03:02:00,
2013-09-30 22:07:00,61.5,48.9,29.77,SSW,202,4.5,11.0,63,0.00,,,0.00,WUHU21623XXSP,2013-10-01 03:07:00,
2013-09-30 22:12:00,61.5,48.9,29.77,SW,225,6.0,11.0,63,0.00,,,0.00,WUHU21623XXSP,2013-10-01 03:12:00,
2013-09-30 22:17:00,61.5,49.3,29.77,SSW,202,8.3,11.9,64,0.00,,,0.00,WUHU21623XXSP,2013-10-01 03:17:00,
2013-09-30 22:22:00,61.3,49.1,29.77,South,180,6.9,11.9,64,0.00,,,0.00,WUHU21623XXSP,2013-10-01 03:22:00,
2013-09-30 22:27:00,61.3,49.1,29.78,South,180,5.1,11.0,64,0.00,,,0.00,WUHU21623XXSP,2013-10-01 03:27:00,
2013-09-30 22:32:00,61.0,48.8,29.78,SSE,157,4.9,11.0,64,0.00,,,0.00,WUHU21623XXSP,2013-10-01 03:32:00,
2013-09-30 22:37:00,60.6,48.9,29.78,South,180,5.4,9.6,65,0.00,,,0.00,WUHU21623XXSP,2013-10-01 03:37:00,
2013-09-30 22:42:00,60.4,49.1,29.77,SSW,202,4.0,10.7,66,0.00,,,0.00,WUHU21623XXSP,2013-10-01 03:42:00,
2013-09-30 22:47:00,60.1,48.8,29.78,SSW,202,6.5,10.7,66,0.00,,,0.00,WUHU21623XXSP,2013-10-01 03:47:00,
2013-09-30 22:52:00,60.1,48.8,29.78,South,180,5.1,12.8,66,0.00,,,0.00,WUHU21623XXSP,2013-10-01 03:52:00,
2013-09-30 22:57:00,60.1,48.8,29.78,South,180,5.4,13.2,66,0.00,,,0.00,WUHU21623XXSP,2013-10-01 03:57:00,
2013-09-30 23:01:00,60.4,49.1,29.78,SSW,202,8.1,13.2,66,0.00,,,0.00,WUHU21623XXSP,2013-10-01 04:01:00,
2013-09-30 23:02:00,60.4,49.1,29.78,SSE,157,4.3,13.2,66,0.00,,,0.00,WUHU21623XXSP,2013-10-01 04:02:00,
2013-09-30 23:07:00,60.4,49.1,29.78,SSE,157,5.1,10.1,66,0.00,,,0.00,WUHU21623XXSP,2013-10-01 04:07:00,
2013-09-30 23:12:00,60.1,49.2,29.78,SSE,157,10.3,15.2,67,0.00,,,0.00,WUHU21623XXSP,2013-10-01 04:12:00,
2013-09-30 23:17:00,59.9,49.0,29.78,SSE,157,8.3,15.2,67,0.00,,,0.00,WUHU21623XXSP,2013-10-01 04:17:00,
2013-09-30 23:22:00,59.7,48.8,29.78,South,180,9.2,12.3,67,0.00,,,0.00,WUHU21623XXSP,2013-10-01 04:22:00,
2013-09-30 23:27:00,59.7,48.8,29.78,SSW,202,3.4,11.4,67,0.00,,,0.00,WUHU21623XXSP,2013-10-01 04:27:00,
2013-09-30 23:32:00,59.7,49.3,29.78,SW,225,6.0,8.9,68,0.00,,,0.00,WUHU21623XXSP,2013-10-01 04:32:00,
2013-09-30 23:37:00,59.5,49.1,29.78,SE,135,4.7,9.6,68,0.00,,,0.00,WUHU21623XXSP,2013-10-01 04:37:00,
2013-09-30 23:42:00,59.5,49.1,29.78,ESE,112,2.9,9.6,68,0.00,,,0.00,WUHU21623XXSP,2013-10-01 04:42:00,
2013-09-30 23:47:00,59.4,49.0,29.78,SSW,202,5.1,8.1,68,0.00,,,0.00,WUHU21623XXSP,2013-10-01 04:47:00,
2013-09-30 23:52:00,59.4,49.4,29.78,SE,135,5.4,10.1,69,0.00,,,0.00,WUHU21623XXSP,2013-10-01 04:52:00,
2013-09-30 23:57:00,59.0,49.0,29.78,South,180,2.5,10.1,69,0.00,,,0.00,WUHU21623XXSP,2013-10-01 04:57:00,